Time,TemperatureF,DewpointF,PressureIn,WindDirection,WindDirectionDegrees,WindSpeedMPH,WindSpeedGustMPH,Humidity,HourlyPrecipIn,Conditions,Clouds,dailyrainin,SolarRadiationWatts/m^2,SoftwareType,DateUTC
2013-01-13 00:07:00,76.6,69.0,29.97,ENE,57,7.0,11.0,76,0.01,,,0.00,0,weatherlink.com 1.10,2013-01-13 04:07:00,
2013-01-13 00:22:00,76.6,69.0,29.97,NE,53,5.0,13.0,76,0.01,,,0.00,0,weatherlink.com 1.10,2013-01-13 04:22:00,
2013-01-13 00:37:00,76.6,68.0,29.97,ENE,76,8.0,16.0,75,0.01,,,0.00,0,weatherlink.com 1.10,2013-01-13 04:37:00,
2013-01-13 00:52:00,76.3,67.0,29.97,NNE,33,3.0,14.0,74,0.00,,,0.00,0,weatherlink.com 1.10,2013-01-13 04:52:00,
2013-01-13 01:07:00,76.1,67.0,29.96,NE,48,3.0,13.0,73,0.00,,,0.00,0,weatherlink.com 1.10,2013-01-13 05:07:00,
2013-01-13 01:22:00,76.0,67.0,29.96,ENE,64,11.0,11.0,73,0.00,,,0.00,0,weatherlink.com 1.10,2013-01-13 05:22:00,
2013-01-13 01:37:00,75.9,67.0,29.95,NE,50,12.0,12.0,75,0.00,,,0.00,0,weatherlink.com 1.10,2013-01-13 05:37:00,
2013-01-13 01:52:00,76.0,68.0,29.95,ENE,72,8.0,12.0,75,0.00,,,0.00,0,weatherlink.com 1.10,2013-01-13 05:52:00,
2013-01-13 02:07:00,76.0,68.0,29.95,ENE,67,9.0,16.0,75,0.00,,,0.00,0,weatherlink.com 1.10,2013-01-13 06:07:00,
2013-01-13 02:22:00,75.8,67.0,29.95,East,79,5.0,11.0,75,0.00,,,0.00,0,weatherlink.com 1.10,2013-01-13 06:22:00,
2013-01-13 02:37:00,75.6,67.0,29.96,East,81,10.0,11.0,74,0.00,,,0.00,0,weatherlink.com 1.10,2013-01-13 06:37:00,
2013-01-13 02:52:00,75.5,67.0,29.96,NE,54,2.0,10.0,75,0.00,,,0.00,0,weatherlink.com 1.10,2013-01-13 06:52:00,
2013-01-13 03:08:00,75.5,66.0,29.95,ENE,67,5.0,14.0,73,0.00,,,0.00,0,weatherlink.com 1.10,2013-01-13 07:08:00,
2013-01-13 03:22:00,75.4,67.0,29.95,ENE,78,9.0,12.0,74,0.00,,,0.00,0,weatherlink.com 1.10,2013-01-13 07:22:00,
2013-01-13 03:52:00,75.2,66.0,29.95,ENE,76,7.0,10.0,73,0.00,,,0.00,0,weatherlink.com 1.10,2013-01-13 07:52:00,
2013-01-13 04:07:00,75.1,66.0,29.95,NNE,12,4.0,12.0,72,0.00,,,0.00,0,weatherlink.com 1.10,2013-01-13 08:07:00,
2013-01-13 04:22:00,75.0,65.0,29.95,NE,48,4.0,12.0,71,0.00,,,0.00,0,weatherlink.com 1.10,2013-01-13 08:22:00,
2013-01-13 04:37:00,75.1,65.0,29.95,ENE,58,8.0,13.0,71,0.00,,,0.00,0,weatherlink.com 1.10,2013-01-13 08:37:00,
2013-01-13 04:52:00,75.0,65.0,29.95,East,93,13.0,13.0,72,0.00,,,0.00,0,weatherlink.com 1.10,2013-01-13 08:52:00,
2013-01-13 05:07:00,75.2,65.0,29.96,ENE,76,5.0,14.0,70,0.00,,,0.00,0,weatherlink.com 1.10,2013-01-13 09:07:00,
2013-01-13 05:22:00,75.3,65.0,29.96,NE,43,5.0,17.0,70,0.00,,,0.00,0,weatherlink.com 1.10,2013-01-13 09:22:00,
2013-01-13 05:37:00,75.3,65.0,29.96,ENE,70,7.0,14.0,70,0.00,,,0.00,0,weatherlink.com 1.10,2013-01-13 09:37:00,
2013-01-13 05:52:00,75.6,65.0,29.97,NNE,25,4.0,13.0,69,0.00,,,0.00,0,weatherlink.com 1.10,2013-01-13 09:52:00,
2013-01-13 06:07:00,75.7,65.0,29.97,ENE,59,4.0,10.0,69,0.00,,,0.00,0,weatherlink.com 1.10,2013-01-13 10:07:00,
2013-01-13 06:22:00,75.5,65.0,29.98,East,89,9.0,9.0,69,0.00,,,0.00,0,weatherlink.com 1.10,2013-01-13 10:22:00,
2013-01-13 06:37:00,75.5,65.0,29.98,NE,42,1.0,12.0,69,0.00,,,0.00,0,weatherlink.com 1.10,2013-01-13 10:37:00,
2013-01-13 06:52:00,75.2,65.0,29.99,ENE,70,0.0,12.0,70,0.00,,,0.00,0,weatherlink.com 1.10,2013-01-13 10:52:00,
2013-01-13 07:07:00,75.1,65.0,29.99,North,5,5.0,7.0,70,0.00,,,0.00,9,weatherlink.com 1.10,2013-01-13 11:07:00,
2013-01-13 07:23:00,75.1,64.0,30.00,NE,45,4.0,9.0,69,0.00,,,0.00,25,weatherlink.com 1.10,2013-01-13 11:23:00,
2013-01-13 07:38:00,75.4,64.0,30.00,NNE,17,3.0,8.0,68,0.00,,,0.00,46,weatherlink.com 1.10,2013-01-13 11:38:00,
2013-01-13 07:53:00,75.8,64.0,30.00,ENE,65,1.0,10.0,67,0.00,,,0.00,47,weatherlink.com 1.10,2013-01-13 11:53:00,
2013-01-13 08:08:00,76.2,64.0,30.01,NE,54,4.0,10.0,65,0.00,,,0.00,49,weatherlink.com 1.10,2013-01-13 12:08:00,
2013-01-13 08:23:00,76.6,64.0,30.01,NE,35,2.0,7.0,65,0.00,,,0.00,54,weatherlink.com 1.10,2013-01-13 12:23:00,
2013-01-13 08:53:00,78.2,64.0,30.02,ENE,59,7.0,10.0,61,0.00,,,0.00,381,weatherlink.com 1.10,2013-01-13 12:53:00,
2013-01-13 09:08:00,79.6,63.0,30.03,ENE,57,5.0,8.0,58,0.00,,,0.00,510,weatherlink.com 1.10,2013-01-13 13:08:00,
2013-01-13 09:23:00,79.9,63.0,30.03,ENE,72,8.0,9.0,56,0.00,,,0.00,554,weatherlink.com 1.10,2013-01-13 13:23:00,
2013-01-13 09:38:00,79.9,64.0,30.03,ENE,65,2.0,9.0,59,0.00,,,0.00,555,weatherlink.com 1.10,2013-01-13 13:38:00,
2013-01-13 09:53:00,80.0,66.0,30.03,North,355,0.0,11.0,62,0.00,,,0.00,410,weatherlink.com 1.10,2013-01-13 13:53:00,
2013-01-13 10:08:00,79.9,66.0,30.03,NE,40,0.0,10.0,62,0.00,,,0.00,172,weatherlink.com 1.10,2013-01-13 14:08:00,
2013-01-13 10:23:00,80.6,66.0,30.03,NE,53,7.0,8.0,61,0.00,,,0.00,128,weatherlink.com 1.10,2013-01-13 14:23:00,
2013-01-13 10:38:00,81.6,65.0,30.02,ENE,77,8.0,13.0,58,0.00,,,0.00,160,weatherlink.com 1.10,2013-01-13 14:38:00,
2013-01-13 10:53:00,81.8,65.0,30.02,ENE,69,3.0,11.0,58,0.00,,,0.00,118,weatherlink.com 1.10,2013-01-13 14:53:00,
2013-01-13 11:08:00,82.5,65.0,30.01,NE,36,3.0,9.0,56,0.00,,,0.00,88,weatherlink.com 1.10,2013-01-13 15:08:00,
2013-01-13 11:23:00,83.0,65.0,30.01,East,83,6.0,8.0,54,0.00,,,0.00,540,weatherlink.com 1.10,2013-01-13 15:23:00,
2013-01-13 11:38:00,83.9,64.0,30.00,NE,40,6.0,10.0,52,0.00,,,0.00,446,weatherlink.com 1.10,2013-01-13 15:38:00,
2013-01-13 11:53:00,84.5,64.0,30.00,North,9,7.0,10.0,50,0.00,,,0.00,756,weatherlink.com 1.10,2013-01-13 15:53:00,
2013-01-13 12:08:00,84.0,64.0,29.99,ENE,78,7.0,8.0,51,0.00,,,0.00,772,weatherlink.com 1.10,2013-01-13 16:08:00,
2013-01-13 12:23:00,83.2,63.0,29.98,North,350,2.0,7.0,51,0.00,,,0.00,779,weatherlink.com 1.10,2013-01-13 16:23:00,
2013-01-13 12:38:00,83.4,64.0,29.98,ENE,76,5.0,10.0,53,0.00,,,0.00,780,weatherlink.com 1.10,2013-01-13 16:38:00,
2013-01-13 12:53:00,83.5,64.0,29.97,NNW,337,2.0,9.0,52,0.00,,,0.00,775,weatherlink.com 1.10,2013-01-13 16:53:00,
2013-01-13 13:09:00,83.8,64.0,29.97,NW,315,0.0,8.0,51,0.00,,,0.00,770,weatherlink.com 1.10,2013-01-13 17:09:00,
2013-01-13 13:24:00,83.1,64.0,29.97,North,10,3.0,7.0,53,0.00,,,0.00,756,weatherlink.com 1.10,2013-01-13 17:24:00,
2013-01-13 13:39:00,82.9,63.0,29.97,North,355,2.0,7.0,52,0.00,,,0.00,742,weatherlink.com 1.10,2013-01-13 17:39:00,
2013-01-13 13:54:00,82.6,63.0,29.96,North,355,4.0,8.0,52,0.00,,,0.00,715,weatherlink.com 1.10,2013-01-13 17:54:00,
2013-01-13 14:09:00,82.0,62.0,29.96,NNE,12,3.0,7.0,51,0.00,,,0.00,694,weatherlink.com 1.10,2013-01-13 18:09:00,
2013-01-13 14:24:00,83.0,64.0,29.96,NE,38,3.0,6.0,53,0.00,,,0.00,661,weatherlink.com 1.10,2013-01-13 18:24:00,
2013-01-13 14:39:00,82.4,65.0,29.96,NNW,338,0.0,6.0,56,0.00,,,0.00,633,weatherlink.com 1.10,2013-01-13 18:39:00,
2013-01-13 14:54:00,82.8,65.0,29.96,ENE,63,2.0,7.0,56,0.00,,,0.00,592,weatherlink.com 1.10,2013-01-13 18:54:00,
2013-01-13 15:09:00,82.7,66.0,29.96,NNW,338,4.0,9.0,57,0.00,,,0.00,550,weatherlink.com 1.10,2013-01-13 19:09:00,
2013-01-13 15:24:00,82.2,65.0,29.96,WNW,288,3.0,6.0,56,0.00,,,0.00,504,weatherlink.com 1.10,2013-01-13 19:24:00,
2013-01-13 15:39:00,81.7,65.0,29.96,NNW,339,3.0,7.0,58,0.00,,,0.00,448,weatherlink.com 1.10,2013-01-13 19:39:00,
2013-01-13 15:54:00,82.0,66.0,29.96,WNW,285,3.0,8.0,59,0.00,,,0.00,408,weatherlink.com 1.10,2013-01-13 19:54:00,
2013-01-13 16:09:00,81.9,67.0,29.97,NNW,333,2.0,5.0,60,0.00,,,0.00,350,weatherlink.com 1.10,2013-01-13 20:09:00,
2013-01-13 16:24:00,81.1,66.0,29.97,NNW,348,5.0,7.0,61,0.00,,,0.00,336,weatherlink.com 1.10,2013-01-13 20:24:00,
2013-01-13 16:39:00,80.8,66.0,29.97,ENE,65,1.0,7.0,62,0.00,,,0.00,153,weatherlink.com 1.10,2013-01-13 20:39:00,
2013-01-13 16:54:00,80.2,67.0,29.97,North,360,7.0,8.0,64,0.00,,,0.00,88,weatherlink.com 1.10,2013-01-13 20:54:00,
2013-01-13 17:09:00,79.3,67.0,29.98,North,355,4.0,8.0,66,0.00,,,0.00,148,weatherlink.com 1.10,2013-01-13 21:09:00,
2013-01-13 17:24:00,79.0,67.0,29.98,NNE,30,6.0,6.0,66,0.00,,,0.00,74,weatherlink.com 1.10,2013-01-13 21:24:00,
2013-01-13 17:39:00,78.6,66.0,29.98,ENE,64,0.0,8.0,66,0.00,,,0.00,28,weatherlink.com 1.10,2013-01-13 21:39:00,
2013-01-13 17:54:00,77.9,66.0,29.98,NNE,12,3.0,7.0,67,0.00,,,0.00,12,weatherlink.com 1.10,2013-01-13 21:54:00,
2013-01-13 18:09:00,77.3,66.0,29.98,NE,54,2.0,9.0,68,0.00,,,0.00,0,weatherlink.com 1.10,2013-01-13 22:09:00,
2013-01-13 18:24:00,76.9,65.0,29.98,NNW,340,2.0,7.0,67,0.00,,,0.00,0,weatherlink.com 1.10,2013-01-13 22:24:00,
2013-01-13 18:39:00,76.9,66.0,29.98,ENE,63,1.0,7.0,69,0.00,,,0.00,0,weatherlink.com 1.10,2013-01-13 22:39:00,
2013-01-13 18:54:00,76.8,65.0,29.98,NNW,327,4.0,7.0,68,0.00,,,0.00,0,weatherlink.com 1.10,2013-01-13 22:54:00,
2013-01-13 19:09:00,76.8,65.0,29.99,NNW,344,1.0,8.0,68,0.00,,,0.00,0,weatherlink.com 1.10,2013-01-13 23:09:00,
2013-01-13 19:24:00,76.8,65.0,29.99,NNE,26,3.0,7.0,67,0.00,,,0.00,0,weatherlink.com 1.10,2013-01-13 23:24:00,
2013-01-13 19:39:00,76.6,65.0,29.99,NE,38,4.0,12.0,68,0.00,,,0.00,0,weatherlink.com 1.10,2013-01-13 23:39:00,
2013-01-13 19:54:00,76.7,65.0,29.99,East,83,2.0,7.0,68,0.00,,,0.00,0,weatherlink.com 1.10,2013-01-13 23:54:00,
2013-01-13 20:09:00,76.7,65.0,29.99,NE,40,1.0,8.0,67,0.00,,,0.00,0,weatherlink.com 1.10,2013-01-14 00:09:00,
2013-01-13 20:24:00,76.6,65.0,29.99,NNE,12,4.0,7.0,68,0.00,,,0.00,0,weatherlink.com 1.10,2013-01-14 00:24:00,
2013-01-13 20:39:00,76.7,65.0,29.99,NE,53,2.0,7.0,68,0.00,,,0.00,0,weatherlink.com 1.10,2013-01-14 00:39:00,
2013-01-13 20:54:00,76.6,64.0,29.99,ENE,65,3.0,7.0,66,0.00,,,0.00,0,weatherlink.com 1.10,2013-01-14 00:54:00,
2013-01-13 21:09:00,76.5,65.0,29.99,NNW,332,0.0,5.0,67,0.00,,,0.00,0,weatherlink.com 1.10,2013-01-14 01:09:00,
2013-01-13 21:24:00,76.3,65.0,29.99,ENE,78,0.0,9.0,68,0.00,,,0.00,0,weatherlink.com 1.10,2013-01-14 01:24:00,
2013-01-13 21:39:00,76.2,64.0,29.99,ENE,69,1.0,7.0,67,0.00,,,0.00,0,weatherlink.com 1.10,2013-01-14 01:39:00,
2013-01-13 21:54:00,76.1,64.0,29.99,NE,51,1.0,6.0,67,0.00,,,0.00,0,weatherlink.com 1.10,2013-01-14 01:54:00,
2013-01-13 22:09:00,75.9,64.0,29.99,ENE,60,1.0,5.0,67,0.00,,,0.00,0,weatherlink.com 1.10,2013-01-14 02:09:00,
2013-01-13 22:24:00,76.0,64.0,30.00,NE,51,5.0,7.0,67,0.00,,,0.00,0,weatherlink.com 1.10,2013-01-14 02:24:00,
2013-01-13 22:39:00,75.9,65.0,30.00,NE,52,0.0,7.0,68,0.00,,,0.00,0,weatherlink.com 1.10,2013-01-14 02:39:00,
2013-01-13 22:54:00,75.7,64.0,30.00,NE,42,1.0,6.0,66,0.00,,,0.00,0,weatherlink.com 1.10,2013-01-14 02:54:00,
2013-01-13 23:09:00,75.6,64.0,30.00,ENE,65,3.0,6.0,67,0.00,,,0.00,0,weatherlink.com 1.10,2013-01-14 03:09:00,
2013-01-13 23:24:00,75.5,63.0,30.00,North,355,2.0,6.0,66,0.00,,,0.00,0,weatherlink.com 1.10,2013-01-14 03:24:00,
2013-01-13 23:39:00,75.4,62.0,30.00,NE,56,1.0,7.0,64,0.00,,,0.00,0,weatherlink.com 1.10,2013-01-14 03:39:00,
2013-01-13 23:54:00,75.3,63.0,30.00,North,11,5.0,6.0,65,0.00,,,0.00,0,weatherlink.com 1.10,2013-01-14 03:54:00,